createdAt,value
2022-10-26T04:02:39.994Z,12.20
2022-10-26T04:05:11.698Z,12.20
2022-10-26T04:07:43.765Z,12.20
2022-10-26T04:10:15.442Z,12.20
2022-10-26T04:12:47.103Z,12.20
2022-10-26T04:15:19.767Z,12.20
2022-10-26T04:18:02.272Z,12.20
2022-10-26T04:20:35.069Z,12.20
2022-10-26T04:23:08.020Z,12.20
2022-10-26T04:25:39.791Z,12.20
2022-10-26T04:28:13.092Z,12.30
2022-10-26T04:30:44.819Z,12.30
2022-10-26T04:33:16.720Z,12.30
2022-10-26T04:35:48.453Z,12.30
2022-10-26T04:38:20.166Z,12.30
2022-10-26T04:40:52.156Z,12.30
2022-10-26T04:43:23.860Z,12.30
2022-10-26T04:45:58.683Z,12.30
2022-10-26T04:48:30.475Z,12.30
2022-10-26T04:51:02.218Z,12.20
2022-10-26T04:53:34.429Z,12.20
2022-10-26T04:56:06.395Z,12.10
2022-10-26T04:58:38.131Z,12.00
2022-10-26T05:01:09.891Z,12.00
2022-10-26T05:03:41.670Z,11.90
2022-10-26T05:06:13.350Z,11.80
2022-10-26T05:08:45.084Z,11.80
2022-10-26T05:11:16.967Z,11.80
2022-10-26T05:13:49.198Z,11.80
2022-10-26T05:16:20.859Z,11.80
2022-10-26T05:18:52.550Z,11.80
2022-10-26T05:21:24.211Z,11.80
2022-10-26T05:23:56.000Z,11.80
2022-10-26T05:26:27.867Z,11.80
2022-10-26T05:28:59.625Z,11.90
2022-10-26T05:31:31.392Z,11.90
2022-10-26T05:34:03.295Z,11.90
2022-10-26T05:36:35.061Z,11.90
2022-10-26T05:39:06.845Z,11.90
2022-10-26T05:41:38.477Z,11.90
2022-10-26T05:44:10.146Z,11.90
2022-10-26T05:46:42.025Z,11.90
2022-10-26T05:49:13.755Z,12.00
2022-10-26T05:51:45.584Z,11.90
2022-10-26T05:54:17.462Z,12.00
2022-10-26T05:56:49.606Z,12.00
2022-10-26T05:59:21.684Z,12.00
2022-10-26T06:02:31.323Z,12.00
2022-10-26T06:05:04.975Z,12.10
2022-10-26T06:07:37.281Z,12.00
2022-10-26T06:10:10.978Z,12.10
2022-10-26T06:12:42.905Z,12.10
2022-10-26T06:15:22.258Z,12.10
2022-10-26T06:18:08.487Z,12.20
2022-10-26T06:21:06.815Z,12.40
2022-10-26T06:23:55.183Z,12.50
2022-10-26T06:26:37.757Z,12.70
2022-10-26T06:29:18.567Z,12.80
2022-10-26T06:31:50.298Z,12.80
2022-10-26T06:34:27.323Z,12.80
2022-10-26T06:37:00.628Z,13.00
2022-10-26T06:39:36.685Z,13.10
2022-10-26T06:42:10.881Z,13.30
2022-10-26T06:44:42.947Z,13.30
2022-10-26T06:47:37.563Z,13.40
2022-10-26T06:50:31.398Z,13.40
2022-10-26T06:53:18.959Z,13.50
2022-10-26T06:55:50.979Z,13.60
2022-10-26T06:58:25.258Z,13.70
2022-10-26T07:00:57.587Z,13.70
2022-10-26T07:03:29.247Z,13.70
2022-10-26T07:06:01.040Z,13.70
2022-10-26T07:08:32.948Z,13.70
2022-10-26T07:11:05.714Z,13.70
2022-10-26T07:13:37.420Z,13.80
2022-10-26T07:16:09.189Z,13.70
2022-10-26T07:18:40.854Z,13.80
2022-10-26T07:21:12.755Z,13.80
2022-10-26T07:23:44.470Z,13.80
2022-10-26T07:26:16.204Z,13.90
2022-10-26T07:28:50.350Z,13.90
2022-10-26T07:31:22.128Z,14.00
2022-10-26T07:33:54.691Z,14.00
2022-10-26T07:36:26.440Z,14.00
2022-10-26T07:38:58.151Z,14.00
2022-10-26T07:41:30.410Z,14.10
2022-10-26T07:44:02.185Z,14.10
2022-10-26T07:46:33.964Z,14.20
2022-10-26T07:49:05.700Z,14.20
2022-10-26T07:51:37.452Z,14.30
2022-10-26T07:54:09.274Z,14.40
2022-10-26T07:56:40.992Z,14.50
2022-10-26T07:59:13.242Z,14.50
2022-10-26T08:01:45.227Z,14.50
2022-10-26T08:04:16.907Z,14.60
2022-10-26T08:06:48.774Z,14.70
2022-10-26T08:09:20.493Z,14.80
2022-10-26T08:11:52.187Z,14.90
2022-10-26T08:14:23.999Z,14.90
2022-10-26T08:16:55.667Z,14.90
2022-10-26T08:19:27.359Z,14.90
2022-10-26T08:21:59.020Z,15.00
2022-10-26T08:24:30.839Z,15.10
2022-10-26T08:27:02.519Z,15.10
2022-10-26T08:29:34.328Z,15.10
2022-10-26T08:32:06.041Z,15.10
2022-10-26T08:34:37.799Z,15.10
2022-10-26T08:37:09.461Z,15.20
2022-10-26T08:39:41.222Z,15.30
2022-10-26T08:42:22.686Z,15.30
2022-10-26T08:45:00.711Z,15.30
2022-10-26T08:47:43.675Z,15.40
2022-10-26T08:50:29.566Z,15.40
2022-10-26T08:53:16.700Z,15.50
2022-10-26T08:55:56.423Z,15.50
2022-10-26T08:58:36.084Z,15.60
2022-10-26T09:01:09.122Z,15.70
2022-10-26T09:03:42.068Z,15.80
2022-10-26T09:06:39.295Z,16.00
2022-10-26T09:09:32.775Z,16.10
2022-10-26T09:12:14.991Z,16.10
2022-10-26T09:15:08.393Z,16.10
2022-10-26T09:18:02.034Z,16.10
2022-10-26T09:20:52.017Z,16.10
2022-10-26T09:23:26.482Z,16.20
2022-10-26T09:26:00.994Z,16.30
2022-10-26T09:28:36.817Z,16.60
2022-10-26T09:31:15.124Z,17.90
2022-10-26T09:33:47.217Z,19.80
2022-10-26T09:36:22.016Z,20.60
2022-10-26T09:39:03.883Z,21.00
2022-10-26T09:41:43.765Z,21.60
2022-10-26T09:44:25.984Z,22.30
2022-10-26T09:47:20.969Z,23.10
2022-10-26T09:50:16.954Z,23.50
2022-10-26T09:52:48.781Z,23.30
2022-10-26T09:55:23.596Z,21.90
2022-10-26T09:57:59.161Z,20.80
2022-10-26T10:00:36.597Z,20.00
2022-10-26T10:03:20.706Z,19.60
2022-10-26T10:05:53.167Z,19.80
2022-10-26T10:08:28.038Z,20.50
2022-10-26T10:11:05.590Z,21.40
2022-10-26T10:13:40.707Z,22.50
2022-10-26T10:16:23.956Z,23.60
2022-10-26T10:19:00.736Z,24.20
2022-10-26T10:21:37.960Z,24.20
2022-10-26T10:24:30.813Z,24.30
2022-10-26T10:27:17.763Z,24.70
2022-10-26T10:29:52.389Z,24.80
2022-10-26T10:32:35.317Z,25.30
2022-10-26T10:35:24.985Z,24.70
2022-10-26T10:37:57.577Z,23.30
2022-10-26T10:40:31.220Z,22.20
2022-10-26T10:43:11.105Z,21.40
2022-10-26T10:45:48.407Z,20.90
2022-10-26T10:48:26.095Z,20.60
2022-10-26T10:51:01.052Z,21.50
2022-10-26T10:53:36.010Z,22.70
2022-10-26T10:56:17.795Z,23.70
2022-10-26T10:59:09.369Z,24.30
2022-10-26T11:02:06.928Z,24.90
2022-10-26T11:05:17.126Z,24.60
2022-10-26T11:07:57.977Z,24.00
2022-10-26T11:10:34.271Z,23.10
2022-10-26T11:13:27.106Z,21.90
2022-10-26T11:16:04.109Z,20.80
2022-10-26T11:18:45.766Z,20.40
2022-10-26T11:21:29.280Z,20.10
2022-10-26T11:24:11.181Z,20.00
2022-10-26T11:26:46.610Z,20.00
2022-10-26T11:29:30.961Z,20.10
2022-10-26T11:32:23.490Z,20.20
2022-10-26T11:35:04.055Z,20.20
2022-10-26T11:37:54.625Z,20.20
2022-10-26T11:40:33.369Z,20.30
2022-10-26T11:43:34.009Z,20.30
2022-10-26T11:46:27.935Z,20.60
2022-10-26T11:49:11.011Z,20.50
2022-10-26T11:51:52.619Z,20.30
2022-10-26T11:54:35.798Z,20.20
2022-10-26T11:57:07.875Z,20.10
2022-10-26T11:59:46.064Z,20.20
2022-10-26T12:02:25.479Z,20.10
2022-10-26T12:05:19.992Z,20.10
2022-10-26T12:07:56.480Z,20.10
2022-10-26T12:10:31.564Z,20.00
2022-10-26T12:13:11.334Z,19.90
2022-10-26T12:16:04.385Z,19.90
2022-10-26T12:18:56.818Z,19.90
2022-10-26T12:21:31.096Z,20.00
2022-10-26T12:24:22.891Z,20.00
2022-10-26T12:27:06.105Z,20.00
2022-10-26T12:29:49.316Z,20.00
2022-10-26T12:32:33.023Z,20.00
2022-10-26T12:35:33.590Z,20.00
2022-10-26T12:38:24.007Z,20.10
2022-10-26T12:41:20.787Z,20.10
2022-10-26T12:43:56.811Z,20.10
2022-10-26T12:46:28.463Z,20.20
2022-10-26T12:49:00.252Z,20.10
2022-10-26T12:51:34.142Z,20.10
2022-10-26T12:54:08.064Z,20.10
2022-10-26T12:56:52.695Z,20.10
2022-10-26T12:59:30.125Z,20.00
2022-10-26T13:02:10.882Z,19.90
2022-10-26T13:04:56.960Z,19.90
2022-10-26T13:07:36.213Z,19.90
2022-10-26T13:10:14.036Z,20.10
2022-10-26T13:12:55.992Z,20.10
2022-10-26T13:15:41.034Z,20.00
2022-10-26T13:18:18.832Z,19.90
2022-10-26T13:21:15.681Z,19.80
2022-10-26T13:24:07.800Z,19.70
2022-10-26T13:27:04.604Z,19.70
2022-10-26T13:30:04.307Z,19.60
2022-10-26T13:32:41.923Z,19.50
2022-10-26T13:35:15.238Z,19.40
2022-10-26T13:37:50.277Z,19.20
2022-10-26T13:40:27.563Z,19.10
2022-10-26T13:43:04.271Z,19.10
2022-10-26T13:45:57.509Z,19.00
2022-10-26T13:48:36.300Z,19.00
2022-10-26T13:51:19.143Z,19.00
2022-10-26T13:54:04.734Z,19.00
2022-10-26T13:57:15.248Z,18.90
2022-10-26T13:59:47.044Z,18.80
2022-10-26T14:02:26.864Z,18.80
2022-10-26T14:05:04.494Z,18.90
2022-10-26T14:10:27.262Z,18.80
2022-10-26T14:13:01.009Z,18.80
2022-10-26T14:15:33.901Z,18.90
2022-10-26T14:18:05.674Z,19.00
2022-10-26T14:20:37.454Z,19.10
2022-10-26T14:23:32.669Z,19.30
2022-10-26T14:26:05.002Z,19.50
2022-10-26T14:28:45.793Z,19.50
2022-10-26T14:31:29.266Z,19.60
2022-10-26T14:34:04.305Z,19.60
2022-10-26T14:36:49.901Z,19.70
2022-10-26T14:39:21.496Z,19.70
2022-10-26T14:41:54.433Z,19.70
2022-10-26T14:44:26.571Z,19.60
2022-10-26T14:46:58.291Z,19.50
2022-10-26T14:49:30.099Z,19.40
2022-10-26T14:52:06.631Z,19.30
2022-10-26T14:54:38.457Z,19.10
2022-10-26T14:57:46.823Z,19.10
2022-10-26T15:00:26.234Z,19.00
2022-10-26T15:02:58.998Z,18.70
2022-10-26T15:05:35.807Z,18.50
2022-10-26T15:08:52.587Z,18.30
2022-10-26T15:11:29.502Z,18.10
2022-10-26T15:14:02.030Z,17.90
2022-10-26T15:16:40.677Z,17.70
2022-10-26T15:19:22.687Z,17.60
2022-10-26T15:21:55.197Z,17.50
2022-10-26T15:24:38.478Z,17.40
2022-10-26T15:27:16.343Z,17.30
2022-10-26T15:29:51.224Z,17.20
2022-10-26T15:32:29.782Z,17.00
2022-10-26T15:35:31.194Z,16.90
2022-10-26T15:38:02.924Z,16.80
2022-10-26T15:40:36.941Z,16.70
2022-10-26T15:43:11.233Z,16.50
2022-10-26T15:45:52.232Z,16.40
2022-10-26T15:48:30.863Z,16.30
2022-10-26T15:51:02.557Z,16.20
2022-10-26T15:53:35.730Z,16.10
2022-10-26T15:56:16.700Z,16.00
2022-10-26T15:58:48.383Z,15.90
2022-10-26T16:01:23.514Z,15.80
2022-10-26T16:03:55.338Z,15.70
2022-10-26T16:06:33.445Z,15.60
2022-10-26T16:09:07.426Z,15.60
2022-10-26T16:11:39.141Z,15.50
2022-10-26T16:14:12.620Z,15.40
2022-10-26T16:16:44.323Z,15.30
2022-10-26T16:19:30.253Z,15.30
2022-10-26T16:22:03.031Z,15.20
2022-10-26T16:24:35.244Z,15.20
2022-10-26T16:27:07.149Z,15.10
2022-10-26T16:29:38.927Z,15.10
2022-10-26T16:32:11.187Z,15.00
2022-10-26T16:34:42.916Z,15.00
2022-10-26T16:37:14.612Z,14.90
2022-10-26T16:39:46.275Z,14.90
2022-10-26T16:42:18.027Z,14.90
2022-10-26T16:44:49.690Z,14.80
2022-10-26T16:49:57.964Z,14.70
2022-10-26T16:52:31.358Z,14.60
2022-10-26T16:55:04.687Z,14.60
2022-10-26T16:57:37.071Z,14.50
2022-10-26T17:00:09.340Z,14.50
2022-10-26T17:02:41.149Z,14.50
2022-10-26T17:05:13.103Z,14.40
2022-10-26T17:07:47.586Z,14.40
2022-10-26T17:10:19.375Z,14.30
2022-10-26T17:12:51.510Z,14.30
2022-10-26T17:15:28.465Z,14.20
2022-10-26T17:18:04.152Z,14.10
2022-10-26T17:20:36.462Z,14.00
2022-10-26T17:23:08.212Z,14.00
2022-10-26T17:25:40.154Z,13.90
2022-10-26T17:28:12.609Z,13.90
2022-10-26T17:30:44.732Z,13.80
2022-10-26T17:33:16.491Z,13.80
2022-10-26T17:35:53.596Z,13.80
2022-10-26T17:38:25.580Z,13.80
2022-10-26T17:41:01.622Z,13.70
2022-10-26T17:43:34.752Z,13.70
2022-10-26T17:46:09.970Z,13.70
2022-10-26T17:48:41.858Z,13.70
2022-10-26T17:51:18.934Z,13.60
2022-10-26T17:53:51.297Z,13.60
2022-10-26T17:56:28.854Z,13.60
2022-10-26T17:59:02.950Z,13.50
2022-10-26T18:01:34.723Z,13.50
2022-10-26T18:04:06.509Z,13.50
2022-10-26T18:06:38.270Z,13.40
2022-10-26T18:09:10.194Z,13.40
2022-10-26T18:11:41.898Z,13.40
2022-10-26T18:14:13.885Z,13.40
2022-10-26T18:16:45.569Z,13.40
2022-10-26T18:19:17.299Z,13.40
2022-10-26T18:21:49.308Z,13.50
2022-10-26T18:24:21.007Z,13.50
2022-10-26T18:26:54.281Z,13.40
2022-10-26T18:29:27.403Z,13.40
2022-10-26T18:31:59.082Z,13.40
2022-10-26T18:34:31.112Z,13.30
2022-10-26T18:37:02.902Z,13.30
2022-10-26T18:39:34.737Z,13.30
2022-10-26T18:42:06.423Z,13.40
2022-10-26T18:44:38.201Z,13.50
2022-10-26T18:47:09.875Z,13.50
2022-10-26T18:49:41.963Z,13.40
2022-10-26T18:52:13.667Z,13.30
2022-10-26T18:54:45.432Z,13.30
2022-10-26T18:57:18.763Z,13.20
2022-10-26T18:59:54.792Z,13.20
2022-10-26T19:02:26.897Z,13.20
2022-10-26T19:04:58.892Z,13.10
2022-10-26T19:07:30.698Z,13.10
2022-10-26T19:10:02.407Z,13.00
2022-10-26T19:12:34.193Z,13.00
2022-10-26T19:15:06.418Z,13.00
2022-10-26T19:17:38.697Z,12.90
2022-10-26T19:20:12.823Z,12.90
2022-10-26T19:22:44.643Z,12.90
2022-10-26T19:25:16.441Z,13.00
2022-10-26T19:27:48.430Z,13.00
2022-10-26T19:30:20.270Z,13.00
2022-10-26T19:32:52.663Z,12.90
2022-10-26T19:35:24.391Z,12.80
2022-10-26T19:37:56.095Z,12.80
2022-10-26T19:40:27.777Z,12.70
2022-10-26T19:42:59.596Z,12.70
2022-10-26T19:45:31.271Z,12.70
2022-10-26T19:48:02.994Z,12.70
2022-10-26T19:50:34.671Z,12.70
2022-10-26T19:53:06.356Z,12.60
2022-10-26T19:55:45.468Z,12.60
2022-10-26T19:58:17.172Z,12.70
2022-10-26T20:00:48.938Z,12.70
2022-10-26T20:03:20.879Z,12.70
2022-10-26T20:05:55.950Z,12.60
2022-10-26T20:08:28.493Z,12.50
2022-10-26T20:11:00.179Z,12.40
2022-10-26T20:13:32.440Z,12.40
2022-10-26T20:16:04.697Z,12.40
2022-10-26T20:18:36.368Z,12.40
2022-10-26T20:21:09.582Z,12.40
2022-10-26T20:23:41.499Z,12.40
2022-10-26T20:26:19.389Z,12.30
2022-10-26T20:28:51.972Z,12.30
2022-10-26T20:31:23.722Z,12.30
2022-10-26T20:33:55.451Z,12.30
2022-10-26T20:36:27.130Z,12.30
2022-10-26T20:38:59.405Z,12.30
2022-10-26T20:41:31.586Z,12.30
2022-10-26T20:44:04.709Z,12.30
2022-10-26T20:46:37.460Z,12.30
2022-10-26T20:49:10.647Z,12.30
2022-10-26T20:52:20.236Z,12.30
2022-10-26T20:55:01.655Z,12.30
2022-10-26T20:57:35.965Z,12.30
2022-10-26T21:00:10.853Z,12.30
2022-10-26T21:02:43.323Z,12.20
2022-10-26T21:05:15.854Z,12.20
2022-10-26T21:07:47.819Z,12.20
2022-10-26T21:10:19.651Z,12.20
2022-10-26T21:12:52.362Z,12.20
2022-10-26T21:15:24.307Z,12.10
2022-10-26T21:17:56.053Z,12.10
2022-10-26T21:20:29.274Z,12.10
2022-10-26T21:23:01.143Z,12.10
2022-10-26T21:25:34.814Z,12.10
2022-10-26T21:28:09.561Z,12.10
2022-10-26T21:30:41.419Z,12.10
2022-10-26T21:33:13.130Z,12.10
2022-10-26T21:35:54.266Z,12.10
2022-10-26T21:38:27.839Z,12.20
2022-10-26T21:41:06.521Z,12.20
2022-10-26T21:43:40.955Z,12.20
2022-10-26T21:46:13.116Z,12.20
2022-10-26T21:48:45.254Z,12.10
2022-10-26T21:51:21.018Z,12.10
2022-10-26T21:53:52.859Z,12.10
2022-10-26T21:56:25.197Z,12.10
2022-10-26T21:59:00.650Z,12.00
2022-10-26T22:01:32.859Z,12.00
2022-10-26T22:04:04.909Z,12.00
2022-10-26T22:06:36.790Z,11.90
2022-10-26T22:09:09.015Z,11.90
2022-10-26T22:11:40.794Z,11.80
2022-10-26T22:14:14.175Z,11.80
2022-10-26T22:16:45.971Z,11.80
2022-10-26T22:19:17.757Z,11.80
2022-10-26T22:21:49.433Z,11.70
2022-10-26T22:24:21.175Z,11.70
2022-10-26T22:26:53.078Z,11.70
2022-10-26T22:29:24.914Z,11.70
2022-10-26T22:31:56.863Z,11.70
2022-10-26T22:34:28.604Z,11.70
2022-10-26T22:37:00.399Z,11.70
2022-10-26T22:39:32.184Z,11.70
2022-10-26T22:42:04.259Z,11.70
2022-10-26T22:44:36.067Z,11.70
2022-10-26T22:47:07.868Z,11.60
2022-10-26T22:49:39.597Z,11.60
2022-10-26T22:52:11.399Z,11.60
2022-10-26T22:54:43.163Z,11.60
2022-10-26T22:57:14.906Z,11.50
2022-10-26T22:59:46.567Z,11.50
2022-10-26T23:02:18.322Z,11.50
2022-10-26T23:04:50.161Z,11.50
2022-10-26T23:07:22.006Z,11.50
2022-10-26T23:09:53.732Z,11.50
2022-10-26T23:12:25.547Z,11.50
2022-10-26T23:14:57.427Z,11.40
2022-10-26T23:17:29.175Z,11.30
2022-10-26T23:20:00.908Z,11.30
2022-10-26T23:22:32.684Z,11.20
2022-10-26T23:25:04.727Z,11.20
2022-10-26T23:27:36.472Z,11.20
2022-10-26T23:30:08.816Z,11.20
2022-10-26T23:32:40.523Z,11.10
2022-10-26T23:35:12.289Z,11.10
2022-10-26T23:37:45.198Z,11.10
2022-10-26T23:40:17.165Z,11.10
2022-10-26T23:42:49.373Z,11.10
2022-10-26T23:45:21.934Z,11.20
2022-10-26T23:47:53.803Z,11.20
2022-10-26T23:50:25.718Z,11.20
2022-10-26T23:52:57.453Z,11.20
2022-10-26T23:55:29.115Z,11.10
2022-10-26T23:58:00.915Z,11.10
